sensor_id;sensor_type;location;lat;lon;timestamp;P1;durP1;ratioP1;P2;durP2;ratioP2
6119;SDS011;3090;52.496;13.298;2023-08-21T00:01:03;1.40;;;1.30;;
6119;SDS011;3090;52.496;13.298;2023-08-21T00:03:30;2.17;;;1.48;;
6119;SDS011;3090;52.496;13.298;2023-08-21T00:05:56;1.48;;;1.48;;
6119;SDS011;3090;52.496;13.298;2023-08-21T00:08:22;0.85;;;0.85;;
6119;SDS011;3090;52.496;13.298;2023-08-21T00:10:48;0.80;;;0.80;;
6119;SDS011;3090;52.496;13.298;2023-08-21T00:13:14;0.77;;;0.77;;
6119;SDS011;3090;52.496;13.298;2023-08-21T00:15:42;0.90;;;0.77;;
6119;SDS011;3090;52.496;13.298;2023-08-21T00:18:08;2.15;;;0.65;;
6119;SDS011;3090;52.496;13.298;2023-08-21T00:20:34;0.80;;;0.80;;
6119;SDS011;3090;52.496;13.298;2023-08-21T00:23:00;0.70;;;0.70;;
6119;SDS011;3090;52.496;13.298;2023-08-21T00:25:27;0.93;;;0.93;;
6119;SDS011;3090;52.496;13.298;2023-08-21T00:27:53;1.02;;;0.82;;
6119;SDS011;3090;52.496;13.298;2023-08-21T00:30:19;0.70;;;0.70;;
6119;SDS011;3090;52.496;13.298;2023-08-21T00:32:47;1.50;;;0.88;;
6119;SDS011;3090;52.496;13.298;2023-08-21T00:35:13;0.70;;;0.70;;
6119;SDS011;3090;52.496;13.298;2023-08-21T00:37:39;0.65;;;0.50;;
6119;SDS011;3090;52.496;13.298;2023-08-21T00:40:07;0.60;;;0.60;;
6119;SDS011;3090;52.496;13.298;2023-08-21T00:42:33;1.13;;;1.02;;
6119;SDS011;3090;52.496;13.298;2023-08-21T00:44:59;0.40;;;0.40;;
6119;SDS011;3090;52.496;13.298;2023-08-21T00:47:26;1.83;;;0.63;;
6119;SDS011;3090;52.496;13.298;2023-08-21T00:49:53;0.70;;;0.70;;
6119;SDS011;3090;52.496;13.298;2023-08-21T00:52:20;0.52;;;0.52;;
6119;SDS011;3090;52.496;13.298;2023-08-21T00:54:46;0.98;;;0.98;;
6119;SDS011;3090;52.496;13.298;2023-08-21T00:57:12;9.43;;;0.57;;
6119;SDS011;3090;52.496;13.298;2023-08-21T00:59:39;0.30;;;0.30;;
6119;SDS011;3090;52.496;13.298;2023-08-21T01:02:05;1.95;;;1.00;;
6119;SDS011;3090;52.496;13.298;2023-08-21T01:04:31;0.50;;;0.50;;
6119;SDS011;3090;52.496;13.298;2023-08-21T01:06:59;2.00;;;0.82;;
6119;SDS011;3090;52.496;13.298;2023-08-21T01:09:27;0.45;;;0.45;;
6119;SDS011;3090;52.496;13.298;2023-08-21T01:11:54;1.48;;;1.00;;
6119;SDS011;3090;52.496;13.298;2023-08-21T01:14:25;0.98;;;0.98;;
6119;SDS011;3090;52.496;13.298;2023-08-21T01:16:56;1.27;;;1.17;;
6119;SDS011;3090;52.496;13.298;2023-08-21T01:19:26;0.82;;;0.80;;
6119;SDS011;3090;52.496;13.298;2023-08-21T01:21:56;0.98;;;0.93;;
6119;SDS011;3090;52.496;13.298;2023-08-21T01:24:23;0.73;;;0.73;;
6119;SDS011;3090;52.496;13.298;2023-08-21T01:26:50;1.20;;;0.60;;
6119;SDS011;3090;52.496;13.298;2023-08-21T01:29:16;1.42;;;1.42;;
6119;SDS011;3090;52.496;13.298;2023-08-21T01:31:42;0.52;;;0.52;;
6119;SDS011;3090;52.496;13.298;2023-08-21T01:34:13;2.85;;;1.17;;
6119;SDS011;3090;52.496;13.298;2023-08-21T01:36:39;0.85;;;0.82;;
6119;SDS011;3090;52.496;13.298;2023-08-21T01:39:06;2.10;;;1.02;;
6119;SDS011;3090;52.496;13.298;2023-08-21T01:41:33;0.70;;;0.70;;
6119;SDS011;3090;52.496;13.298;2023-08-21T01:44:02;0.77;;;0.77;;
6119;SDS011;3090;52.496;13.298;2023-08-21T01:46:28;1.05;;;0.82;;
6119;SDS011;3090;52.496;13.298;2023-08-21T01:48:55;1.02;;;0.75;;
6119;SDS011;3090;52.496;13.298;2023-08-21T01:51:22;0.80;;;0.80;;
6119;SDS011;3090;52.496;13.298;2023-08-21T01:53:48;1.70;;;0.70;;
6119;SDS011;3090;52.496;13.298;2023-08-21T01:56:14;0.65;;;0.65;;
6119;SDS011;3090;52.496;13.298;2023-08-21T01:58:42;1.23;;;1.23;;
6119;SDS011;3090;52.496;13.298;2023-08-21T02:01:08;1.08;;;1.08;;
6119;SDS011;3090;52.496;13.298;2023-08-21T02:03:34;0.60;;;0.60;;
6119;SDS011;3090;52.496;13.298;2023-08-21T02:06:01;0.65;;;0.65;;
6119;SDS011;3090;52.496;13.298;2023-08-21T02:08:30;0.60;;;0.60;;
6119;SDS011;3090;52.496;13.298;2023-08-21T02:10:56;0.93;;;0.93;;
6119;SDS011;3090;52.496;13.298;2023-08-21T02:13:22;2.67;;;1.85;;
6119;SDS011;3090;52.496;13.298;2023-08-21T02:15:50;0.73;;;0.73;;
6119;SDS011;3090;52.496;13.298;2023-08-21T02:18:16;0.73;;;0.73;;
6119;SDS011;3090;52.496;13.298;2023-08-21T02:20:42;0.73;;;0.73;;
6119;SDS011;3090;52.496;13.298;2023-08-21T02:23:08;0.98;;;0.77;;
6119;SDS011;3090;52.496;13.298;2023-08-21T02:25:34;1.08;;;0.93;;
6119;SDS011;3090;52.496;13.298;2023-08-21T02:28:01;5.35;;;1.08;;
6119;SDS011;3090;52.496;13.298;2023-08-21T02:30:29;1.35;;;1.35;;
6119;SDS011;3090;52.496;13.298;2023-08-21T02:32:56;1.00;;;1.00;;
6119;SDS011;3090;52.496;13.298;2023-08-21T02:35:22;0.77;;;0.77;;
6119;SDS011;3090;52.496;13.298;2023-08-21T02:37:48;0.90;;;0.90;;
6119;SDS011;3090;52.496;13.298;2023-08-21T02:40:15;0.57;;;0.57;;
6119;SDS011;3090;52.496;13.298;2023-08-21T02:42:41;0.93;;;0.88;;
6119;SDS011;3090;52.496;13.298;2023-08-21T02:45:08;0.82;;;0.82;;
6119;SDS011;3090;52.496;13.298;2023-08-21T02:47:34;0.70;;;0.70;;
6119;SDS011;3090;52.496;13.298;2023-08-21T02:50:02;2.75;;;0.90;;
6119;SDS011;3090;52.496;13.298;2023-08-21T02:52:29;0.82;;;0.82;;
6119;SDS011;3090;52.496;13.298;2023-08-21T02:54:55;3.22;;;1.48;;
6119;SDS011;3090;52.496;13.298;2023-08-21T02:57:22;0.68;;;0.68;;
6119;SDS011;3090;52.496;13.298;2023-08-21T02:59:49;0.98;;;0.90;;
6119;SDS011;3090;52.496;13.298;2023-08-21T03:02:15;0.80;;;0.80;;
6119;SDS011;3090;52.496;13.298;2023-08-21T03:04:41;0.98;;;0.98;;
6119;SDS011;3090;52.496;13.298;2023-08-21T03:07:08;0.82;;;0.80;;
6119;SDS011;3090;52.496;13.298;2023-08-21T03:09:35;0.88;;;0.88;;
6119;SDS011;3090;52.496;13.298;2023-08-21T03:12:01;3.00;;;1.13;;
6119;SDS011;3090;52.496;13.298;2023-08-21T03:14:28;0.73;;;0.73;;
6119;SDS011;3090;52.496;13.298;2023-08-21T03:16:54;0.80;;;0.57;;
6119;SDS011;3090;52.496;13.298;2023-08-21T03:19:20;0.77;;;0.77;;
6119;SDS011;3090;52.496;13.298;2023-08-21T03:21:46;0.88;;;0.65;;
6119;SDS011;3090;52.496;13.298;2023-08-21T03:24:14;1.40;;;1.30;;
6119;SDS011;3090;52.496;13.298;2023-08-21T03:26:40;1.13;;;1.13;;
6119;SDS011;3090;52.496;13.298;2023-08-21T03:29:06;0.82;;;0.82;;
6119;SDS011;3090;52.496;13.298;2023-08-21T03:31:32;1.02;;;1.02;;
6119;SDS011;3090;52.496;13.298;2023-08-21T03:33:58;0.47;;;0.47;;
6119;SDS011;3090;52.496;13.298;2023-08-21T03:36:25;1.15;;;1.15;;
6119;SDS011;3090;52.496;13.298;2023-08-21T03:38:56;0.98;;;0.80;;
6119;SDS011;3090;52.496;13.298;2023-08-21T03:41:23;1.67;;;0.77;;
6119;SDS011;3090;52.496;13.298;2023-08-21T03:43:50;0.75;;;0.63;;
6119;SDS011;3090;52.496;13.298;2023-08-21T03:46:16;0.75;;;0.75;;
6119;SDS011;3090;52.496;13.298;2023-08-21T03:48:42;1.05;;;1.05;;
6119;SDS011;3090;52.496;13.298;2023-08-21T03:51:08;0.88;;;0.88;;
6119;SDS011;3090;52.496;13.298;2023-08-21T03:53:35;2.35;;;2.15;;
6119;SDS011;3090;52.496;13.298;2023-08-21T03:56:01;1.13;;;0.98;;
6119;SDS011;3090;52.496;13.298;2023-08-21T03:58:29;0.73;;;0.73;;
6119;SDS011;3090;52.496;13.298;2023-08-21T04:00:55;1.75;;;0.90;;
6119;SDS011;3090;52.496;13.298;2023-08-21T04:03:21;1.58;;;1.08;;
6119;SDS011;3090;52.496;13.298;2023-08-21T04:05:47;1.13;;;0.70;;
6119;SDS011;3090;52.496;13.298;2023-08-21T04:08:13;1.75;;;1.00;;
6119;SDS011;3090;52.496;13.298;2023-08-21T04:10:40;1.15;;;0.93;;
6119;SDS011;3090;52.496;13.298;2023-08-21T04:13:09;0.90;;;0.90;;
6119;SDS011;3090;52.496;13.298;2023-08-21T04:15:37;0.77;;;0.77;;
6119;SDS011;3090;52.496;13.298;2023-08-21T04:18:03;0.57;;;0.57;;
6119;SDS011;3090;52.496;13.298;2023-08-21T04:20:30;13.32;;;1.25;;
6119;SDS011;3090;52.496;13.298;2023-08-21T04:22:56;1.40;;;0.82;;
6119;SDS011;3090;52.496;13.298;2023-08-21T04:25:22;1.00;;;1.00;;
6119;SDS011;3090;52.496;13.298;2023-08-21T04:27:49;4.70;;;0.73;;
6119;SDS011;3090;52.496;13.298;2023-08-21T04:30:15;0.73;;;0.73;;
6119;SDS011;3090;52.496;13.298;2023-08-21T04:32:42;1.27;;;1.20;;
6119;SDS011;3090;52.496;13.298;2023-08-21T04:35:09;0.63;;;0.60;;
6119;SDS011;3090;52.496;13.298;2023-08-21T04:37:37;1.10;;;1.10;;
6119;SDS011;3090;52.496;13.298;2023-08-21T04:40:03;1.40;;;1.30;;
6119;SDS011;3090;52.496;13.298;2023-08-21T04:42:30;0.40;;;0.40;;
6119;SDS011;3090;52.496;13.298;2023-08-21T04:44:56;0.98;;;0.98;;
6119;SDS011;3090;52.496;13.298;2023-08-21T04:47:24;1.35;;;1.35;;
6119;SDS011;3090;52.496;13.298;2023-08-21T04:49:53;1.58;;;1.48;;
6119;SDS011;3090;52.496;13.298;2023-08-21T04:52:20;0.70;;;0.70;;
6119;SDS011;3090;52.496;13.298;2023-08-21T04:54:46;4.25;;;0.77;;
6119;SDS011;3090;52.496;13.298;2023-08-21T04:57:13;0.30;;;0.30;;
6119;SDS011;3090;52.496;13.298;2023-08-21T04:59:41;0.90;;;0.85;;
6119;SDS011;3090;52.496;13.298;2023-08-21T05:02:07;4.22;;;1.05;;
6119;SDS011;3090;52.496;13.298;2023-08-21T05:04:35;1.45;;;1.10;;
6119;SDS011;3090;52.496;13.298;2023-08-21T05:07:03;0.90;;;0.90;;
6119;SDS011;3090;52.496;13.298;2023-08-21T05:09:30;1.20;;;1.20;;
6119;SDS011;3090;52.496;13.298;2023-08-21T05:11:56;0.73;;;0.73;;
6119;SDS011;3090;52.496;13.298;2023-08-21T05:14:22;0.80;;;0.80;;
6119;SDS011;3090;52.496;13.298;2023-08-21T05:16:49;0.52;;;0.52;;
6119;SDS011;3090;52.496;13.298;2023-08-21T05:19:15;0.73;;;0.68;;
6119;SDS011;3090;52.496;13.298;2023-08-21T05:21:41;1.27;;;1.15;;
6119;SDS011;3090;52.496;13.298;2023-08-21T05:24:08;0.68;;;0.68;;
6119;SDS011;3090;52.496;13.298;2023-08-21T05:26:35;0.70;;;0.70;;
6119;SDS011;3090;52.496;13.298;2023-08-21T05:29:01;0.65;;;0.65;;
6119;SDS011;3090;52.496;13.298;2023-08-21T05:31:27;4.72;;;1.48;;
6119;SDS011;3090;52.496;13.298;2023-08-21T05:33:54;1.20;;;1.20;;
6119;SDS011;3090;52.496;13.298;2023-08-21T05:36:20;1.80;;;1.75;;
6119;SDS011;3090;52.496;13.298;2023-08-21T05:38:46;1.00;;;0.80;;
6119;SDS011;3090;52.496;13.298;2023-08-21T05:41:14;1.02;;;1.02;;
6119;SDS011;3090;52.496;13.298;2023-08-21T05:43:41;1.35;;;1.35;;
6119;SDS011;3090;52.496;13.298;2023-08-21T05:46:07;0.80;;;0.80;;
6119;SDS011;3090;52.496;13.298;2023-08-21T05:48:33;1.30;;;1.30;;
6119;SDS011;3090;52.496;13.298;2023-08-21T05:51:00;1.23;;;1.23;;
6119;SDS011;3090;52.496;13.298;2023-08-21T05:53:26;1.50;;;1.45;;
6119;SDS011;3090;52.496;13.298;2023-08-21T05:55:52;0.80;;;0.80;;
6119;SDS011;3090;52.496;13.298;2023-08-21T05:58:19;1.90;;;1.25;;
6119;SDS011;3090;52.496;13.298;2023-08-21T06:00:46;3.38;;;1.42;;
6119;SDS011;3090;52.496;13.298;2023-08-21T06:03:12;1.02;;;1.02;;
6119;SDS011;3090;52.496;13.298;2023-08-21T06:05:38;13.25;;;1.00;;
6119;SDS011;3090;52.496;13.298;2023-08-21T06:08:05;0.90;;;0.90;;
6119;SDS011;3090;52.496;13.298;2023-08-21T06:10:33;1.15;;;1.15;;
6119;SDS011;3090;52.496;13.298;2023-08-21T06:12:59;1.15;;;1.15;;
6119;SDS011;3090;52.496;13.298;2023-08-21T06:15:27;0.70;;;0.70;;
6119;SDS011;3090;52.496;13.298;2023-08-21T06:17:53;1.05;;;1.05;;
6119;SDS011;3090;52.496;13.298;2023-08-21T06:20:19;5.78;;;1.13;;
6119;SDS011;3090;52.496;13.298;2023-08-21T06:22:46;1.20;;;1.20;;
6119;SDS011;3090;52.496;13.298;2023-08-21T06:25:12;0.82;;;0.73;;
6119;SDS011;3090;52.496;13.298;2023-08-21T06:27:38;0.73;;;0.73;;
6119;SDS011;3090;52.496;13.298;2023-08-21T06:30:05;4.50;;;1.00;;
6119;SDS011;3090;52.496;13.298;2023-08-21T06:32:33;0.93;;;0.93;;
6119;SDS011;3090;52.496;13.298;2023-08-21T06:34:59;1.05;;;1.05;;
6119;SDS011;3090;52.496;13.298;2023-08-21T06:37:25;0.45;;;0.43;;
6119;SDS011;3090;52.496;13.298;2023-08-21T06:39:52;0.73;;;0.73;;
6119;SDS011;3090;52.496;13.298;2023-08-21T06:42:18;2.10;;;0.90;;
6119;SDS011;3090;52.496;13.298;2023-08-21T06:44:44;1.00;;;1.00;;
6119;SDS011;3090;52.496;13.298;2023-08-21T06:47:10;7.97;;;1.10;;
6119;SDS011;3090;52.496;13.298;2023-08-21T06:49:38;3.13;;;0.70;;
6119;SDS011;3090;52.496;13.298;2023-08-21T06:52:04;0.68;;;0.68;;
6119;SDS011;3090;52.496;13.298;2023-08-21T06:54:30;0.80;;;0.80;;
6119;SDS011;3090;52.496;13.298;2023-08-21T06:56:57;0.70;;;0.70;;
6119;SDS011;3090;52.496;13.298;2023-08-21T06:59:23;0.80;;;0.80;;
6119;SDS011;3090;52.496;13.298;2023-08-21T07:01:49;0.80;;;0.80;;
6119;SDS011;3090;52.496;13.298;2023-08-21T07:04:16;0.90;;;0.90;;
6119;SDS011;3090;52.496;13.298;2023-08-21T07:06:44;0.75;;;0.75;;
6119;SDS011;3090;52.496;13.298;2023-08-21T07:09:10;0.47;;;0.47;;
6119;SDS011;3090;52.496;13.298;2023-08-21T07:11:36;0.80;;;0.80;;
6119;SDS011;3090;52.496;13.298;2023-08-21T07:14:02;0.20;;;0.20;;
6119;SDS011;3090;52.496;13.298;2023-08-21T07:16:29;1.55;;;1.55;;
6119;SDS011;3090;52.496;13.298;2023-08-21T07:18:55;0.77;;;0.77;;
6119;SDS011;3090;52.496;13.298;2023-08-21T07:21:21;0.90;;;0.90;;
6119;SDS011;3090;52.496;13.298;2023-08-21T07:23:48;0.90;;;0.68;;
6119;SDS011;3090;52.496;13.298;2023-08-21T07:26:15;0.60;;;0.60;;
6119;SDS011;3090;52.496;13.298;2023-08-21T07:28:41;0.50;;;0.45;;
6119;SDS011;3090;52.496;13.298;2023-08-21T07:31:07;1.00;;;1.00;;
6119;SDS011;3090;52.496;13.298;2023-08-21T07:33:33;1.05;;;1.05;;
6119;SDS011;3090;52.496;13.298;2023-08-21T07:36:00;0.85;;;0.73;;
6119;SDS011;3090;52.496;13.298;2023-08-21T07:38:26;0.40;;;0.40;;
6119;SDS011;3090;52.496;13.298;2023-08-21T07:41:02;0.82;;;0.82;;
6119;SDS011;3090;52.496;13.298;2023-08-21T07:43:29;1.17;;;1.17;;
6119;SDS011;3090;52.496;13.298;2023-08-21T07:45:55;0.30;;;0.30;;
6119;SDS011;3090;52.496;13.298;2023-08-21T07:48:21;0.40;;;0.40;;
6119;SDS011;3090;52.496;13.298;2023-08-21T07:50:50;0.50;;;0.50;;
6119;SDS011;3090;52.496;13.298;2023-08-21T07:53:16;0.73;;;0.70;;
6119;SDS011;3090;52.496;13.298;2023-08-21T07:55:42;0.93;;;0.80;;
6119;SDS011;3090;52.496;13.298;2023-08-21T07:58:10;2.28;;;0.50;;
6119;SDS011;3090;52.496;13.298;2023-08-21T08:00:38;0.52;;;0.50;;
6119;SDS011;3090;52.496;13.298;2023-08-21T08:03:05;0.57;;;0.57;;
6119;SDS011;3090;52.496;13.298;2023-08-21T08:05:31;0.95;;;0.95;;
6119;SDS011;3090;52.496;13.298;2023-08-21T08:07:57;0.40;;;0.40;;
6119;SDS011;3090;52.496;13.298;2023-08-21T08:10:23;0.20;;;0.20;;
6119;SDS011;3090;52.496;13.298;2023-08-21T08:12:49;0.57;;;0.57;;
6119;SDS011;3090;52.496;13.298;2023-08-21T08:15:17;1.65;;;0.47;;
6119;SDS011;3090;52.496;13.298;2023-08-21T08:17:43;0.63;;;0.38;;
6119;SDS011;3090;52.496;13.298;2023-08-21T08:20:11;0.85;;;0.60;;
6119;SDS011;3090;52.496;13.298;2023-08-21T08:22:37;0.40;;;0.40;;
6119;SDS011;3090;52.496;13.298;2023-08-21T08:25:04;0.40;;;0.40;;
6119;SDS011;3090;52.496;13.298;2023-08-21T08:27:31;0.38;;;0.38;;
6119;SDS011;3090;52.496;13.298;2023-08-21T08:29:57;1.15;;;1.05;;
6119;SDS011;3090;52.496;13.298;2023-08-21T08:32:25;0.68;;;0.68;;
6119;SDS011;3090;52.496;13.298;2023-08-21T08:34:51;0.45;;;0.38;;
6119;SDS011;3090;52.496;13.298;2023-08-21T08:37:17;0.30;;;0.30;;
6119;SDS011;3090;52.496;13.298;2023-08-21T08:39:45;0.20;;;0.20;;
6119;SDS011;3090;52.496;13.298;2023-08-21T08:42:12;0.25;;;0.25;;
6119;SDS011;3090;52.496;13.298;2023-08-21T08:44:38;0.45;;;0.40;;
6119;SDS011;3090;52.496;13.298;2023-08-21T08:47:06;0.10;;;0.10;;
6119;SDS011;3090;52.496;13.298;2023-08-21T08:49:33;0.10;;;0.10;;
6119;SDS011;3090;52.496;13.298;2023-08-21T08:52:00;0.20;;;0.20;;
6119;SDS011;3090;52.496;13.298;2023-08-21T08:54:26;0.10;;;0.10;;
6119;SDS011;3090;52.496;13.298;2023-08-21T08:56:53;0.15;;;0.15;;
6119;SDS011;3090;52.496;13.298;2023-08-21T08:59:19;0.10;;;0.10;;
6119;SDS011;3090;52.496;13.298;2023-08-21T09:01:45;0.20;;;0.20;;
6119;SDS011;3090;52.496;13.298;2023-08-21T09:04:12;0.13;;;0.13;;
6119;SDS011;3090;52.496;13.298;2023-08-21T09:06:39;0.00;;;0.00;;
6119;SDS011;3090;52.496;13.298;2023-08-21T09:09:07;0.30;;;0.30;;
6119;SDS011;3090;52.496;13.298;2023-08-21T09:11:35;0.32;;;0.32;;
6119;SDS011;3090;52.496;13.298;2023-08-21T09:14:01;0.10;;;0.10;;
6119;SDS011;3090;52.496;13.298;2023-08-21T09:16:28;0.10;;;0.10;;
6119;SDS011;3090;52.496;13.298;2023-08-21T09:18:54;0.10;;;0.10;;
6119;SDS011;3090;52.496;13.298;2023-08-21T09:21:22;0.15;;;0.15;;
6119;SDS011;3090;52.496;13.298;2023-08-21T09:23:55;0.63;;;0.28;;
6119;SDS011;3090;52.496;13.298;2023-08-21T09:26:22;0.90;;;0.50;;
6119;SDS011;3090;52.496;13.298;2023-08-21T09:28:49;0.10;;;0.10;;
6119;SDS011;3090;52.496;13.298;2023-08-21T09:31:15;0.20;;;0.20;;
6119;SDS011;3090;52.496;13.298;2023-08-21T09:33:42;0.20;;;0.20;;
6119;SDS011;3090;52.496;13.298;2023-08-21T09:36:08;0.10;;;0.10;;
6119;SDS011;3090;52.496;13.298;2023-08-21T09:38:35;0.00;;;0.00;;
6119;SDS011;3090;52.496;13.298;2023-08-21T09:41:05;0.20;;;0.10;;
6119;SDS011;3090;52.496;13.298;2023-08-21T09:43:32;0.00;;;0.00;;
6119;SDS011;3090;52.496;13.298;2023-08-21T09:46:06;0.25;;;0.17;;
6119;SDS011;3090;52.496;13.298;2023-08-21T09:48:32;0.10;;;0.10;;
6119;SDS011;3090;52.496;13.298;2023-08-21T09:50:59;0.10;;;0.10;;
6119;SDS011;3090;52.496;13.298;2023-08-21T09:53:29;0.10;;;0.10;;
6119;SDS011;3090;52.496;13.298;2023-08-21T09:55:55;0.28;;;0.28;;
6119;SDS011;3090;52.496;13.298;2023-08-21T09:58:23;0.30;;;0.30;;
6119;SDS011;3090;52.496;13.298;2023-08-21T10:00:50;0.60;;;0.55;;
6119;SDS011;3090;52.496;13.298;2023-08-21T10:03:18;0.10;;;0.10;;
6119;SDS011;3090;52.496;13.298;2023-08-21T10:05:46;0.20;;;0.20;;
6119;SDS011;3090;52.496;13.298;2023-08-21T10:08:13;0.00;;;0.00;;
6119;SDS011;3090;52.496;13.298;2023-08-21T10:10:41;0.60;;;0.20;;
6119;SDS011;3090;52.496;13.298;2023-08-21T10:13:07;0.20;;;0.15;;
6119;SDS011;3090;52.496;13.298;2023-08-21T10:15:35;0.13;;;0.13;;
6119;SDS011;3090;52.496;13.298;2023-08-21T10:18:17;0.10;;;0.10;;
6119;SDS011;3090;52.496;13.298;2023-08-21T10:20:43;0.30;;;0.30;;
6119;SDS011;3090;52.496;13.298;2023-08-21T10:23:10;0.25;;;0.25;;
6119;SDS011;3090;52.496;13.298;2023-08-21T10:25:49;0.38;;;0.38;;
6119;SDS011;3090;52.496;13.298;2023-08-21T10:28:19;0.13;;;0.13;;
6119;SDS011;3090;52.496;13.298;2023-08-21T10:30:48;1.35;;;0.50;;
6119;SDS011;3090;52.496;13.298;2023-08-21T10:33:15;0.20;;;0.20;;
6119;SDS011;3090;52.496;13.298;2023-08-21T10:35:41;0.10;;;0.10;;
6119;SDS011;3090;52.496;13.298;2023-08-21T10:38:08;0.17;;;0.17;;
6119;SDS011;3090;52.496;13.298;2023-08-21T10:40:35;0.03;;;0.03;;
6119;SDS011;3090;52.496;13.298;2023-08-21T10:43:01;0.10;;;0.10;;
6119;SDS011;3090;52.496;13.298;2023-08-21T10:45:28;1.50;;;0.10;;
6119;SDS011;3090;52.496;13.298;2023-08-21T10:47:57;0.00;;;0.00;;
6119;SDS011;3090;52.496;13.298;2023-08-21T10:50:23;0.15;;;0.15;;
6119;SDS011;3090;52.496;13.298;2023-08-21T10:52:52;0.00;;;0.00;;
6119;SDS011;3090;52.496;13.298;2023-08-21T10:55:19;1.27;;;0.28;;
6119;SDS011;3090;52.496;13.298;2023-08-21T10:57:46;0.20;;;0.10;;
6119;SDS011;3090;52.496;13.298;2023-08-21T11:00:13;1.00;;;0.20;;
6119;SDS011;3090;52.496;13.298;2023-08-21T11:02:40;0.00;;;0.00;;
6119;SDS011;3090;52.496;13.298;2023-08-21T11:05:08;0.10;;;0.10;;
6119;SDS011;3090;52.496;13.298;2023-08-21T11:07:38;0.10;;;0.10;;
6119;SDS011;3090;52.496;13.298;2023-08-21T11:10:05;0.10;;;0.10;;
6119;SDS011;3090;52.496;13.298;2023-08-21T11:12:32;0.17;;;0.17;;
6119;SDS011;3090;52.496;13.298;2023-08-21T11:14:58;0.10;;;0.10;;
6119;SDS011;3090;52.496;13.298;2023-08-21T11:17:24;0.00;;;0.00;;
6119;SDS011;3090;52.496;13.298;2023-08-21T11:19:50;0.05;;;0.05;;
6119;SDS011;3090;52.496;13.298;2023-08-21T11:22:18;0.10;;;0.10;;
6119;SDS011;3090;52.496;13.298;2023-08-21T11:24:45;0.13;;;0.10;;
6119;SDS011;3090;52.496;13.298;2023-08-21T11:27:12;0.57;;;0.35;;
6119;SDS011;3090;52.496;13.298;2023-08-21T11:29:40;0.17;;;0.17;;
6119;SDS011;3090;52.496;13.298;2023-08-21T11:32:12;0.10;;;0.10;;
6119;SDS011;3090;52.496;13.298;2023-08-21T11:34:40;0.10;;;0.10;;
6119;SDS011;3090;52.496;13.298;2023-08-21T11:37:07;0.40;;;0.40;;
6119;SDS011;3090;52.496;13.298;2023-08-21T11:39:42;1.27;;;0.50;;
6119;SDS011;3090;52.496;13.298;2023-08-21T11:42:09;0.65;;;0.65;;
6119;SDS011;3090;52.496;13.298;2023-08-21T11:44:40;0.10;;;0.10;;
6119;SDS011;3090;52.496;13.298;2023-08-21T11:47:06;0.15;;;0.15;;
6119;SDS011;3090;52.496;13.298;2023-08-21T11:49:32;0.20;;;0.20;;
6119;SDS011;3090;52.496;13.298;2023-08-21T11:51:59;0.10;;;0.10;;
6119;SDS011;3090;52.496;13.298;2023-08-21T11:54:25;0.00;;;0.00;;
6119;SDS011;3090;52.496;13.298;2023-08-21T11:56:52;0.10;;;0.10;;
6119;SDS011;3090;52.496;13.298;2023-08-21T11:59:22;0.08;;;0.08;;
6119;SDS011;3090;52.496;13.298;2023-08-21T12:01:49;0.30;;;0.30;;
6119;SDS011;3090;52.496;13.298;2023-08-21T12:04:16;0.30;;;0.25;;
6119;SDS011;3090;52.496;13.298;2023-08-21T12:06:43;0.15;;;0.15;;
6119;SDS011;3090;52.496;13.298;2023-08-21T12:09:09;0.10;;;0.10;;
6119;SDS011;3090;52.496;13.298;2023-08-21T12:11:35;0.20;;;0.20;;
6119;SDS011;3090;52.496;13.298;2023-08-21T12:14:04;0.10;;;0.10;;
6119;SDS011;3090;52.496;13.298;2023-08-21T12:16:30;0.15;;;0.15;;
6119;SDS011;3090;52.496;13.298;2023-08-21T12:18:57;0.10;;;0.10;;
6119;SDS011;3090;52.496;13.298;2023-08-21T12:21:23;0.32;;;0.10;;
6119;SDS011;3090;52.496;13.298;2023-08-21T12:23:49;0.00;;;0.00;;
6119;SDS011;3090;52.496;13.298;2023-08-21T12:26:15;0.32;;;0.32;;
6119;SDS011;3090;52.496;13.298;2023-08-21T12:28:45;0.10;;;0.10;;
6119;SDS011;3090;52.496;13.298;2023-08-21T12:31:13;0.13;;;0.13;;
6119;SDS011;3090;52.496;13.298;2023-08-21T12:33:39;1.23;;;0.40;;
6119;SDS011;3090;52.496;13.298;2023-08-21T12:36:06;0.20;;;0.20;;
6119;SDS011;3090;52.496;13.298;2023-08-21T12:38:33;0.10;;;0.10;;
6119;SDS011;3090;52.496;13.298;2023-08-21T12:41:01;0.00;;;0.00;;
6119;SDS011;3090;52.496;13.298;2023-08-21T12:43:27;0.00;;;0.00;;
6119;SDS011;3090;52.496;13.298;2023-08-21T12:45:53;0.00;;;0.00;;
6119;SDS011;3090;52.496;13.298;2023-08-21T12:48:23;0.10;;;0.10;;
6119;SDS011;3090;52.496;13.298;2023-08-21T12:50:50;0.63;;;0.20;;
6119;SDS011;3090;52.496;13.298;2023-08-21T12:53:16;0.13;;;0.10;;
6119;SDS011;3090;52.496;13.298;2023-08-21T12:55:42;0.17;;;0.17;;
6119;SDS011;3090;52.496;13.298;2023-08-21T12:58:08;0.00;;;0.00;;
6119;SDS011;3090;52.496;13.298;2023-08-21T13:00:34;0.20;;;0.20;;
6119;SDS011;3090;52.496;13.298;2023-08-21T13:03:01;0.00;;;0.00;;
6119;SDS011;3090;52.496;13.298;2023-08-21T13:05:29;0.35;;;0.20;;
6119;SDS011;3090;52.496;13.298;2023-08-21T13:07:55;0.10;;;0.10;;
6119;SDS011;3090;52.496;13.298;2023-08-21T13:10:22;0.30;;;0.30;;
6119;SDS011;3090;52.496;13.298;2023-08-21T13:12:48;0.00;;;0.00;;
6119;SDS011;3090;52.496;13.298;2023-08-21T13:15:15;0.00;;;0.00;;
6119;SDS011;3090;52.496;13.298;2023-08-21T13:17:41;0.00;;;0.00;;
6119;SDS011;3090;52.496;13.298;2023-08-21T13:20:08;0.08;;;0.08;;
6119;SDS011;3090;52.496;13.298;2023-08-21T13:22:47;0.10;;;0.10;;
6119;SDS011;3090;52.496;13.298;2023-08-21T13:25:14;0.00;;;0.00;;
6119;SDS011;3090;52.496;13.298;2023-08-21T13:27:40;0.00;;;0.00;;
6119;SDS011;3090;52.496;13.298;2023-08-21T13:30:07;0.10;;;0.10;;
6119;SDS011;3090;52.496;13.298;2023-08-21T13:32:33;0.77;;;0.77;;
6119;SDS011;3090;52.496;13.298;2023-08-21T13:34:59;0.08;;;0.08;;
6119;SDS011;3090;52.496;13.298;2023-08-21T13:37:26;0.10;;;0.10;;
6119;SDS011;3090;52.496;13.298;2023-08-21T13:39:54;0.20;;;0.15;;
6119;SDS011;3090;52.496;13.298;2023-08-21T13:42:24;0.28;;;0.28;;
6119;SDS011;3090;52.496;13.298;2023-08-21T13:44:50;0.10;;;0.10;;
6119;SDS011;3090;52.496;13.298;2023-08-21T13:47:16;0.00;;;0.00;;
6119;SDS011;3090;52.496;13.298;2023-08-21T13:49:43;0.00;;;0.00;;
6119;SDS011;3090;52.496;13.298;2023-08-21T13:52:09;2.45;;;0.20;;
6119;SDS011;3090;52.496;13.298;2023-08-21T13:54:35;0.10;;;0.10;;
6119;SDS011;3090;52.496;13.298;2023-08-21T13:57:03;0.20;;;0.20;;
6119;SDS011;3090;52.496;13.298;2023-08-21T13:59:29;0.15;;;0.15;;
6119;SDS011;3090;52.496;13.298;2023-08-21T14:01:55;2.63;;;0.10;;
6119;SDS011;3090;52.496;13.298;2023-08-21T14:04:21;0.00;;;0.00;;
6119;SDS011;3090;52.496;13.298;2023-08-21T14:06:47;0.10;;;0.10;;
6119;SDS011;3090;52.496;13.298;2023-08-21T14:09:14;0.03;;;0.03;;
6119;SDS011;3090;52.496;13.298;2023-08-21T14:11:40;0.00;;;0.00;;
6119;SDS011;3090;52.496;13.298;2023-08-21T14:14:09;0.40;;;0.40;;
6119;SDS011;3090;52.496;13.298;2023-08-21T14:16:35;0.38;;;0.38;;
6119;SDS011;3090;52.496;13.298;2023-08-21T14:19:02;0.00;;;0.00;;
6119;SDS011;3090;52.496;13.298;2023-08-21T14:21:31;0.05;;;0.05;;
6119;SDS011;3090;52.496;13.298;2023-08-21T14:23:57;0.15;;;0.15;;
6119;SDS011;3090;52.496;13.298;2023-08-21T14:26:23;0.00;;;0.00;;
6119;SDS011;3090;52.496;13.298;2023-08-21T14:28:49;0.10;;;0.10;;
6119;SDS011;3090;52.496;13.298;2023-08-21T14:31:17;0.10;;;0.10;;
6119;SDS011;3090;52.496;13.298;2023-08-21T14:33:43;2.22;;;0.17;;
6119;SDS011;3090;52.496;13.298;2023-08-21T14:36:09;0.10;;;0.10;;
6119;SDS011;3090;52.496;13.298;2023-08-21T14:38:36;0.10;;;0.10;;
6119;SDS011;3090;52.496;13.298;2023-08-21T14:41:02;0.10;;;0.10;;
6119;SDS011;3090;52.496;13.298;2023-08-21T14:43:28;0.10;;;0.10;;
6119;SDS011;3090;52.496;13.298;2023-08-21T14:45:57;0.10;;;0.10;;
6119;SDS011;3090;52.496;13.298;2023-08-21T14:48:24;0.00;;;0.00;;
6119;SDS011;3090;52.496;13.298;2023-08-21T14:50:50;0.17;;;0.17;;
6119;SDS011;3090;52.496;13.298;2023-08-21T14:53:19;0.03;;;0.03;;
6119;SDS011;3090;52.496;13.298;2023-08-21T14:55:45;0.00;;;0.00;;
6119;SDS011;3090;52.496;13.298;2023-08-21T14:58:11;0.00;;;0.00;;